Forside
METAR-TAF:

METAR-TAF

Lufthavne :

Jacksonville Municipal Airport

Jacksonville, Illinois, USA

Breddekreds: 39-46-27N, længdekreds: 090-14-19W, højde: 190 m

Aktuelle vejr

Denne rapport blev lavet for 35 minutter siden, kl. 23:55 UTC
Vind 4 kt fra nordnordøst
Temperatur -2°C
Fugtighed 69%
Tryk 1029 hPa
Sigt: 16.1 km
skyfri

METAR: KIJX 142355Z AUTO 03004KT 10SM CLR M02/M07 A3039 RMK AO2 T10231071 10010 21025

Tid: 18:30 (00:30 UTC)


TAF: fraværende

Vejrobservationer og prognoser fra mere end 4000 lufthavne (METAR og TAF).

De gule og røde prikker repræsenterer de meteorologiske stationer.

Flyt musen over at se navnet på stationen.

Så klik over at se vejr observationer og prognoser.

At skifte det kort: Klik på de grønne knapper med et sort kors for at zoome ind; på den grønne knap med en bindestreg for at zoome ud; eller på de grønne pile for tilstødende kort.


METAR-TAF: